Time;durP1;ratioP1;P1;durP2;ratioP2;P2;SDS_P1;SDS_P2;PMS_P1;PMS_P2;Temp;Humidity;BMP_temperature;BMP_pressure;BME280_temperature;BME280_humidity;BME280_pressure;Samples;Min_cycle;Max_cycle;Signal;HPM_P1;HPM_P2
2021/03/23 00:01:14;;;;;;;36.15;9.20;;;28.90;75.40;;;;;;5103653;28;20069;-51
2021/03/23 00:03:44;;;;;;;42.15;8.98;;;28.90;75.60;;;;;;5095158;28;20043;-51
2021/03/23 00:06:15;;;;;;;23.85;8.00;;;28.80;75.30;;;;;;5103580;28;20020;-52
2021/03/23 00:08:47;;;;;;;23.48;7.10;;;28.80;74.60;;;;;;5095244;28;20031;-48
2021/03/23 00:11:17;;;;;;;24.67;7.18;;;28.80;74.50;;;;;;5103557;28;20039;-55
2021/03/23 00:13:45;;;;;;;17.65;6.20;;;28.70;74.60;;;;;;5095732;28;20031;-46
2021/03/23 00:16:14;;;;;;;21.70;6.95;;;28.70;74.00;;;;;;5103280;28;20024;-57
2021/03/23 00:18:42;;;;;;;15.45;6.20;;;28.70;73.90;;;;;;5095582;28;20336;-51
2021/03/23 00:21:10;;;;;;;19.48;6.45;;;28.60;73.90;;;;;;5105818;28;20043;-54
2021/03/23 00:23:38;;;;;;;15.60;6.13;;;28.60;73.70;;;;;;5112543;28;20035;-50
2021/03/23 00:26:16;;;;;;;18.65;6.63;;;28.60;73.60;;;;;;5111557;28;20016;-54
2021/03/23 00:29:19;;;;;;;18.05;6.47;;;28.60;73.40;;;;;;5112892;28;20208;-51
2021/03/23 00:32:07;;;;;;;15.55;6.30;;;28.50;73.00;;;;;;5071364;28;20328;-49
2021/03/23 00:37:39;;;;;;;15.90;6.22;;;28.40;73.00;;;;;;5088041;28;20127;-47
2021/03/23 00:40:09;;;;;;;13.13;5.88;;;28.40;72.60;;;;;;5090687;28;20020;-44
2021/03/23 00:42:36;;;;;;;16.20;6.28;;;28.40;72.60;;;;;;5081629;28;20020;-46
2021/03/23 00:45:06;;;;;;;13.02;6.55;;;28.40;72.10;;;;;;5091104;28;20051;-45
2021/03/23 00:47:33;;;;;;;12.90;6.60;;;28.40;72.00;;;;;;5083491;28;20048;-46
2021/03/23 00:50:00;;;;;;;17.10;6.78;;;28.30;72.00;;;;;;5090837;28;20321;-46
2021/03/23 00:52:26;;;;;;;15.88;6.68;;;28.30;72.00;;;;;;5090226;28;20028;-51
2021/03/23 00:54:53;;;;;;;18.52;7.35;;;28.30;71.90;;;;;;5092318;28;20028;-52
2021/03/23 00:57:20;;;;;;;15.13;6.70;;;28.30;71.90;;;;;;5086502;28;20029;-50
2021/03/23 00:59:47;;;;;;;16.40;7.03;;;28.30;71.80;;;;;;5081427;28;20098;-54
2021/03/23 01:02:13;;;;;;;17.20;7.30;;;28.30;72.00;;;;;;5088615;28;20031;-52
2021/03/23 01:04:40;;;;;;;21.42;9.60;;;28.30;72.40;;;;;;5103742;28;20023;-52
2021/03/23 01:07:07;;;;;;;17.38;8.35;;;28.20;72.50;;;;;;5106629;28;20101;-47
2021/03/23 01:09:33;;;;;;;16.33;8.27;;;28.20;72.80;;;;;;5117192;28;20079;-47
2021/03/23 01:12:00;;;;;;;19.52;9.18;;;28.20;73.10;;;;;;5117247;28;20020;-48
2021/03/23 01:14:27;;;;;;;23.75;10.07;;;28.10;73.20;;;;;;5127737;28;20027;-48
2021/03/23 01:16:53;;;;;;;22.17;9.32;;;28.10;73.80;;;;;;5127369;28;20058;-47
2021/03/23 01:19:20;;;;;;;19.08;8.52;;;28.10;73.40;;;;;;5127239;28;20040;-53
2021/03/23 01:21:47;;;;;;;14.85;8.05;;;28.10;73.00;;;;;;5127267;28;20034;-53
2021/03/23 01:24:13;;;;;;;21.45;7.47;;;28.10;72.90;;;;;;5127528;28;20023;-48
2021/03/23 01:26:40;;;;;;;16.30;7.28;;;28.00;72.80;;;;;;5126702;28;20012;-45
2021/03/23 01:29:08;;;;;;;19.83;7.75;;;28.10;73.00;;;;;;5127224;28;20035;-48
2021/03/23 01:32:34;;;;;;;19.10;7.65;;;28.10;72.90;;;;;;5126889;28;20041;-46
2021/03/23 01:35:23;;;;;;;20.35;7.65;;;28.10;73.00;;;;;;5070553;28;20043;-49
2021/03/23 01:37:50;;;;;;;18.30;7.55;;;28.10;72.50;;;;;;5101768;28;20081;-52
2021/03/23 01:40:49;;;;;;;14.85;8.18;;;28.10;72.50;;;;;;5100935;28;20036;-46
2021/03/23 01:43:36;;;;;;;16.27;7.00;;;28.10;72.60;;;;;;5070027;28;20066;-46
2021/03/23 01:46:49;;;;;;;15.07;7.60;;;28.10;72.10;;;;;;5094850;28;20020;-50
2021/03/23 01:49:47;;;;;;;17.08;6.65;;;28.10;72.30;;;;;;5089630;28;20032;-42
2021/03/23 01:52:18;;;;;;;13.90;7.20;;;28.10;72.10;;;;;;5085707;28;20185;-46
2021/03/23 01:55:04;;;;;;;23.83;7.97;;;28.10;71.70;;;;;;5081214;28;20047;-46
2021/03/23 01:57:35;;;;;;;14.65;6.82;;;28.00;72.00;;;;;;5100611;28;20026;-49
2021/03/23 02:00:04;;;;;;;12.10;6.93;;;28.00;71.70;;;;;;5104114;28;20063;-45
2021/03/23 02:02:30;;;;;;;11.63;7.50;;;28.00;71.80;;;;;;5098462;28;20050;-50
2021/03/23 02:04:57;;;;;;;12.77;6.70;;;28.00;71.80;;;;;;5083782;28;20033;-52
2021/03/23 02:07:24;;;;;;;18.20;7.22;;;28.00;71.70;;;;;;5083312;28;20162;-48
2021/03/23 02:09:56;;;;;;;13.95;7.30;;;28.00;71.80;;;;;;5094119;28;20061;-49
2021/03/23 02:12:29;;;;;;;13.13;6.90;;;28.00;71.70;;;;;;5101948;28;20204;-52
2021/03/23 02:14:57;;;;;;;17.27;7.40;;;27.90;71.70;;;;;;5114627;28;20027;-47
2021/03/23 02:17:29;;;;;;;18.00;7.25;;;27.90;71.60;;;;;;5111573;28;20024;-47
2021/03/23 02:20:07;;;;;;;;;;;28.00;71.50;;;;;;5104948;28;20060;-44
2021/03/23 02:22:36;;;;;;;13.18;7.53;;;27.90;71.70;;;;;;5105133;28;19904;-53
2021/03/23 02:25:07;;;;;;;13.30;8.10;;;27.90;71.60;;;;;;5105317;28;20016;-46
2021/03/23 02:27:33;;;;;;;20.00;8.77;;;27.90;72.00;;;;;;5110661;28;20212;-44
2021/03/23 02:30:01;;;;;;;15.63;7.97;;;27.90;72.30;;;;;;5120361;28;20462;-48
2021/03/23 02:32:28;;;;;;;16.27;8.05;;;27.90;72.20;;;;;;5122146;28;20011;-47
2021/03/23 02:34:54;;;;;;;17.92;8.35;;;27.90;72.20;;;;;;5125732;28;20020;-49
2021/03/23 02:37:21;;;;;;;10.63;7.30;;;27.80;72.80;;;;;;5112324;28;20048;-48
2021/03/23 02:39:48;;;;;;;14.75;7.20;;;27.80;72.40;;;;;;5105314;28;20028;-48
2021/03/23 02:42:15;;;;;;;17.70;8.25;;;27.80;72.50;;;;;;5112086;28;20078;-47
2021/03/23 02:44:46;;;;;;;17.55;8.23;;;27.80;72.30;;;;;;5125720;28;20057;-50
2021/03/23 02:47:14;;;;;;;13.35;7.88;;;27.70;72.30;;;;;;5123964;28;20012;-47
2021/03/23 02:49:41;;;;;;;14.85;7.80;;;27.70;72.50;;;;;;5123914;28;20024;-51
2021/03/23 02:52:09;;;;;;;14.75;7.57;;;27.70;72.30;;;;;;5117762;28;20246;-45
2021/03/23 02:54:37;;;;;;;14.98;8.00;;;27.70;72.40;;;;;;5104910;28;20040;-45
2021/03/23 02:57:04;;;;;;;10.48;7.25;;;27.70;72.10;;;;;;5105102;28;20012;-49
2021/03/23 02:59:30;;;;;;;15.07;7.70;;;27.70;72.40;;;;;;5114663;28;20039;-47
2021/03/23 03:01:57;;;;;;;13.48;8.38;;;27.70;72.30;;;;;;5112223;28;20024;-48
2021/03/23 03:04:24;;;;;;;17.23;8.63;;;27.70;72.30;;;;;;5115171;28;20257;-52
2021/03/23 03:06:51;;;;;;;15.60;8.20;;;27.60;72.40;;;;;;5094781;28;20023;-48
2021/03/23 03:09:17;;;;;;;17.42;7.82;;;27.60;72.40;;;;;;5115491;28;20051;-50
2021/03/23 03:11:44;;;;;;;20.55;13.25;;;27.60;72.60;;;;;;5112404;28;20099;-46
2021/03/23 03:14:10;;;;;;;25.38;12.43;;;27.60;72.60;;;;;;5114641;28;20055;-48
2021/03/23 03:16:37;;;;;;;17.20;10.00;;;27.60;72.50;;;;;;5111440;28;20024;-45
2021/03/23 03:19:04;;;;;;;25.63;15.43;;;27.60;72.70;;;;;;5110693;28;20299;-48
2021/03/23 03:21:30;;;;;;;41.03;26.52;;;27.60;72.80;;;;;;5113431;28;20016;-44
2021/03/23 03:23:57;;;;;;;37.92;24.58;;;27.50;73.80;;;;;;5112414;28;20027;-45
2021/03/23 03:26:24;;;;;;;38.72;24.20;;;27.50;73.90;;;;;;5094741;28;20084;-47
2021/03/23 03:28:52;;;;;;;41.50;19.55;;;27.50;73.70;;;;;;5114240;28;20031;-46
2021/03/23 03:31:21;;;;;;;28.42;19.23;;;27.50;73.30;;;;;;5112712;28;20027;-45
2021/03/23 03:33:48;;;;;;;30.20;15.18;;;27.40;73.20;;;;;;5115210;28;20042;-45
2021/03/23 03:36:15;;;;;;;24.60;15.55;;;27.40;73.40;;;;;;5114572;28;20012;-45
2021/03/23 03:38:41;;;;;;;20.58;13.07;;;27.40;73.60;;;;;;5114002;28;20020;-45
2021/03/23 03:41:08;;;;;;;25.27;17.45;;;27.40;73.70;;;;;;5106523;28;20020;-49
2021/03/23 03:43:35;;;;;;;40.65;28.70;;;27.40;73.30;;;;;;5117029;28;20019;-45
2021/03/23 03:46:02;;;;;;;15.70;11.55;;;27.40;73.90;;;;;;5114134;28;20024;-45
2021/03/23 03:48:29;;;;;;;18.77;10.77;;;27.40;74.50;;;;;;5108789;28;20023;-49
2021/03/23 03:50:56;;;;;;;15.30;11.20;;;27.40;74.00;;;;;;5112697;28;20052;-44
2021/03/23 03:53:23;;;;;;;19.55;11.93;;;27.30;74.40;;;;;;5110077;28;20047;-45
2021/03/23 03:55:51;;;;;;;20.52;11.13;;;27.30;74.60;;;;;;5115265;28;20019;-45
2021/03/23 03:58:18;;;;;;;15.13;9.95;;;27.30;74.00;;;;;;5107722;28;20032;-46
2021/03/23 04:00:45;;;;;;;15.40;8.95;;;27.30;73.70;;;;;;5103595;28;20023;-46
2021/03/23 04:03:19;;;;;;;17.02;8.85;;;27.20;73.30;;;;;;5103994;28;20108;-49
2021/03/23 04:05:47;;;;;;;15.00;8.50;;;27.20;73.10;;;;;;5103850;28;20023;-52
2021/03/23 04:08:19;;;;;;;10.50;8.32;;;27.20;73.30;;;;;;5105671;28;20262;-48
2021/03/23 04:10:47;;;;;;;11.95;8.60;;;27.20;73.40;;;;;;5103823;28;20043;-44
2021/03/23 04:13:14;;;;;;;10.25;8.25;;;27.20;73.60;;;;;;5104192;28;20028;-45
2021/03/23 04:15:45;;;;;;;13.90;8.52;;;27.20;74.20;;;;;;5103884;28;20020;-49
2021/03/23 04:18:16;;;;;;;13.82;8.27;;;27.20;74.40;;;;;;5102691;28;20099;-47
2021/03/23 04:20:43;;;;;;;12.55;7.90;;;27.10;74.50;;;;;;5103793;28;20040;-52
2021/03/23 04:23:31;;;;;;;12.13;8.13;;;27.10;74.50;;;;;;5104137;28;20185;-46
2021/03/23 04:26:47;;;;;;;14.10;8.18;;;27.10;75.10;;;;;;5103941;28;20081;-51
2021/03/23 04:29:14;;;;;;;8.77;7.88;;;27.10;74.70;;;;;;5104300;28;20066;-47
2021/03/23 04:31:45;;;;;;;11.55;8.23;;;27.00;75.30;;;;;;5103968;28;20020;-44
2021/03/23 04:34:15;;;;;;;16.02;8.18;;;26.90;75.30;;;;;;5104096;28;20216;-49
2021/03/23 04:36:50;;;;;;;12.07;8.32;;;27.00;75.20;;;;;;5104016;28;20335;-52
2021/03/23 04:39:17;;;;;;;9.40;7.90;;;26.90;75.90;;;;;;5103785;28;20044;-53
2021/03/23 04:41:44;;;;;;;9.10;7.85;;;26.90;74.60;;;;;;5103998;28;20016;-48
2021/03/23 04:44:11;;;;;;;10.75;8.10;;;26.90;73.90;;;;;;5107311;28;20020;-50
2021/03/23 04:46:38;;;;;;;15.13;8.40;;;26.90;73.60;;;;;;5107776;28;20211;-50
2021/03/23 04:49:05;;;;;;;10.35;8.68;;;27.00;73.50;;;;;;5108143;28;20036;-50
2021/03/23 04:51:32;;;;;;;13.82;8.75;;;26.90;74.30;;;;;;5107800;28;20020;-48
2021/03/23 04:54:01;;;;;;;12.00;7.82;;;26.90;73.90;;;;;;5107811;28;20364;-50
2021/03/23 04:56:36;;;;;;;12.07;8.15;;;26.90;72.90;;;;;;5107635;28;20316;-44
2021/03/23 04:59:03;;;;;;;9.35;7.97;;;26.90;73.50;;;;;;5107786;28;20327;-49
2021/03/23 05:01:30;;;;;;;9.63;7.70;;;26.90;73.20;;;;;;5107422;28;20020;-50
2021/03/23 05:04:03;;;;;;;12.18;7.88;;;26.90;73.70;;;;;;5107356;28;20189;-53
2021/03/23 05:06:29;;;;;;;13.60;8.35;;;26.90;73.10;;;;;;5107493;28;20019;-47
2021/03/23 05:08:57;;;;;;;13.82;8.18;;;26.90;73.00;;;;;;5107809;28;20036;-47
2021/03/23 05:11:27;;;;;;;12.95;8.90;;;26.90;73.90;;;;;;5107480;28;20020;-45
2021/03/23 05:13:54;;;;;;;10.60;8.45;;;26.90;74.20;;;;;;5107574;28;20028;-49
2021/03/23 05:16:21;;;;;;;14.20;8.43;;;26.90;74.40;;;;;;5107328;28;20024;-46
2021/03/23 05:18:49;;;;;;;12.38;8.57;;;26.80;74.00;;;;;;5107455;28;20043;-44
2021/03/23 05:21:15;;;;;;;13.38;8.75;;;26.80;74.20;;;;;;5107012;28;20190;-47
2021/03/23 05:23:42;;;;;;;14.48;8.75;;;26.80;74.30;;;;;;5107434;28;20050;-45
2021/03/23 05:26:09;;;;;;;12.00;7.95;;;26.80;74.20;;;;;;5106963;28;20016;-44
2021/03/23 05:28:36;;;;;;;12.80;8.55;;;26.80;74.10;;;;;;5107250;28;20024;-47
2021/03/23 05:31:04;;;;;;;11.98;8.25;;;26.80;74.20;;;;;;5107330;28;20024;-51
2021/03/23 05:33:31;;;;;;;14.10;8.68;;;26.80;73.90;;;;;;5107209;28;20031;-45
2021/03/23 05:35:59;;;;;;;13.70;8.65;;;26.80;73.60;;;;;;5106928;28;20331;-46
2021/03/23 05:38:27;;;;;;;12.00;8.23;;;26.80;73.40;;;;;;5107066;28;20078;-49
2021/03/23 05:41:07;;;;;;;11.93;8.00;;;26.80;74.20;;;;;;5106836;28;20085;-45
2021/03/23 05:43:46;;;;;;;13.73;8.48;;;26.70;73.70;;;;;;5106914;28;20095;-44
2021/03/23 05:46:18;;;;;;;15.68;8.15;;;26.70;73.80;;;;;;5106807;28;20012;-44
2021/03/23 05:48:50;;;;;;;;;;;26.70;73.90;;;;;;5106883;28;20269;-45
2021/03/23 05:51:38;;;;;;;11.40;8.60;;;26.70;74.50;;;;;;5106736;28;20188;-44
2021/03/23 05:54:08;;;;;;;15.40;8.88;;;26.60;74.50;;;;;;5105807;28;20270;-46
2021/03/23 05:56:38;;;;;;;13.90;8.45;;;26.60;74.90;;;;;;5106326;28;20212;-51
2021/03/23 05:59:14;;;;;;;12.20;8.85;;;26.60;75.10;;;;;;5106843;28;20326;-45
2021/03/23 06:02:07;;;;;;;10.52;8.52;;;26.60;75.60;;;;;;5106542;28;20027;-45
2021/03/23 06:04:41;;;;;;;;;;;26.50;75.50;;;;;;5105757;28;20035;-44
2021/03/23 06:07:15;;;;;;;11.30;8.55;;;26.60;76.20;;;;;;5106326;28;19900;-44
2021/03/23 06:09:43;;;;;;;12.80;8.90;;;26.50;76.10;;;;;;5106602;28;20039;-50
2021/03/23 06:12:31;;;;;;;11.65;9.23;;;26.50;75.90;;;;;;5106476;28;20193;-48
2021/03/23 06:15:19;;;;;;;13.23;8.55;;;26.50;76.30;;;;;;5106024;28;20335;-44
2021/03/23 06:18:05;;;;;;;12.63;9.10;;;26.50;76.50;;;;;;5106156;28;20028;-45
2021/03/23 06:20:56;;;;;;;12.00;9.00;;;26.50;76.90;;;;;;5105772;28;20101;-47
2021/03/23 06:23:42;;;;;;;10.63;8.63;;;26.50;77.10;;;;;;5106216;28;20260;-46
2021/03/23 06:26:34;;;;;;;15.35;9.60;;;26.50;76.90;;;;;;5105944;28;20126;-43
2021/03/23 06:29:22;;;;;;;10.75;9.07;;;26.50;77.30;;;;;;5106203;28;20043;-48
2021/03/23 06:32:03;;;;;;;11.10;9.23;;;26.40;77.00;;;;;;5105654;28;20016;-46
2021/03/23 06:34:32;;;;;;;11.00;8.82;;;26.50;76.60;;;;;;5105641;28;20028;-44
2021/03/23 06:37:01;;;;;;;13.40;9.38;;;26.50;75.70;;;;;;5105660;28;20024;-46
2021/03/23 06:39:31;;;;;;;13.60;9.10;;;26.40;75.80;;;;;;5106134;28;20077;-41
2021/03/23 06:42:03;;;;;;;11.90;9.00;;;26.50;76.40;;;;;;5105558;28;20260;-44
2021/03/23 06:44:33;;;;;;;11.80;9.45;;;26.50;74.70;;;;;;5105900;28;20055;-44
2021/03/23 06:47:00;;;;;;;15.43;9.43;;;26.50;74.60;;;;;;5105466;28;20035;-46
2021/03/23 06:49:32;;;;;;;12.20;9.07;;;26.50;74.50;;;;;;5105985;28;20181;-46
2021/03/23 06:52:04;;;;;;;10.82;9.43;;;26.50;74.30;;;;;;5105262;28;20020;-49
2021/03/23 06:54:30;;;;;;;12.57;9.18;;;26.50;74.00;;;;;;5105854;28;20031;-49
2021/03/23 06:57:21;;;;;;;12.07;9.35;;;26.50;74.00;;;;;;5105103;28;20209;-45
2021/03/23 07:00:01;;;;;;;10.63;8.48;;;26.50;74.90;;;;;;5102385;28;20032;-45
2021/03/23 07:02:39;;;;;;;11.63;9.30;;;26.50;75.00;;;;;;5104907;28;20066;-49
2021/03/23 07:05:35;;;;;;;12.30;9.30;;;26.40;75.10;;;;;;5104867;28;20022;-49
2021/03/23 07:08:08;;;;;;;11.70;9.43;;;26.40;75.20;;;;;;5105075;28;20297;-46
2021/03/23 07:10:57;;;;;;;12.60;9.82;;;26.40;76.00;;;;;;5105090;28;20031;-46
2021/03/23 07:13:26;;;;;;;11.45;9.60;;;26.40;75.70;;;;;;5105024;28;20048;-47
2021/03/23 07:16:04;;;;;;;14.02;9.93;;;26.40;75.50;;;;;;5105288;28;20318;-44
2021/03/23 07:18:34;;;;;;;14.48;8.90;;;26.30;75.90;;;;;;5105099;28;20031;-50
2021/03/23 07:21:14;;;;;;;11.07;9.10;;;26.30;76.40;;;;;;5104513;28;20051;-47
2021/03/23 07:23:45;;;;;;;12.68;9.20;;;26.30;76.00;;;;;;5105069;28;20036;-47
2021/03/23 07:26:42;;;;;;;12.02;8.75;;;26.30;75.80;;;;;;5104601;28;20020;-48
2021/03/23 07:29:11;;;;;;;12.77;8.85;;;26.30;75.60;;;;;;5100488;28;20027;-47
2021/03/23 07:31:44;;;;;;;12.77;9.50;;;26.30;75.40;;;;;;5104744;28;20027;-47
2021/03/23 07:34:38;;;;;;;19.05;9.20;;;26.30;75.30;;;;;;5104865;28;20043;-46
2021/03/23 07:37:15;;;;;;;10.05;8.68;;;26.30;75.10;;;;;;5104309;28;20365;-51
2021/03/23 07:39:56;;;;;;;16.77;9.20;;;26.30;75.80;;;;;;5104982;28;20073;-49
2021/03/23 07:42:35;;;;;;;14.15;8.30;;;26.20;75.50;;;;;;5104123;28;20027;-50
2021/03/23 07:45:18;;;;;;;10.55;7.82;;;26.10;76.00;;;;;;5104356;28;20087;-49
2021/03/23 07:47:49;;;;;;;10.27;8.30;;;26.00;76.90;;;;;;5104331;28;20024;-49
2021/03/23 07:50:38;;;;;;;14.15;8.57;;;26.00;76.30;;;;;;5104276;28;20051;-49
2021/03/23 07:53:19;;;;;;;11.90;8.43;;;26.10;77.00;;;;;;5104280;28;20056;-49
2021/03/23 07:55:49;;;;;;;11.82;7.93;;;26.00;77.50;;;;;;5104411;28;20314;-53
2021/03/23 07:58:21;;;;;;;13.23;7.75;;;26.00;77.80;;;;;;5104222;28;20070;-51
2021/03/23 08:01:12;;;;;;;16.75;8.90;;;26.00;77.90;;;;;;5104336;28;20020;-52
2021/03/23 08:04:16;;;;;;;18.85;9.02;;;25.90;77.60;;;;;;5104617;28;20048;-49
2021/03/23 08:07:01;;;;;;;12.40;8.23;;;25.90;78.20;;;;;;5104132;28;20050;-49
2021/03/23 08:09:49;;;;;;;11.18;8.63;;;26.00;78.30;;;;;;5104512;28;20330;-45
2021/03/23 08:25:51;;;;;;;13.88;9.80;;;25.80;79.90;;;;;;5107916;28;20054;-50
2021/03/23 08:28:48;;;;;;;14.18;9.23;;;25.80;80.30;;;;;;5108389;28;20312;-45
2021/03/23 08:31:20;;;;;;;13.50;9.05;;;25.70;79.90;;;;;;5108033;28;20020;-46
2021/03/23 08:33:51;;;;;;;;;;;25.60;79.70;;;;;;5108564;28;20078;-45
2021/03/23 08:36:51;;;;;;;15.45;9.95;;;25.60;79.90;;;;;;5107861;28;19900;-45
2021/03/23 08:39:40;;;;;;;13.77;9.13;;;25.60;79.70;;;;;;5108254;28;20040;-46
2021/03/23 08:42:25;;;;;;;13.05;10.00;;;25.60;79.30;;;;;;5107687;28;20098;-44
2021/03/23 08:45:20;;;;;;;16.90;10.05;;;25.60;79.80;;;;;;5107690;28;20043;-44
2021/03/23 08:47:55;;;;;;;15.43;10.23;;;25.60;80.60;;;;;;5107551;28;20028;-45
2021/03/23 08:50:28;;;;;;;14.95;10.68;;;25.50;79.80;;;;;;5107607;28;20020;-46
2021/03/23 08:53:00;;;;;;;19.10;10.23;;;25.50;79.80;;;;;;5107548;28;20215;-43
2021/03/23 08:55:33;;;;;;;14.48;10.23;;;25.50;80.40;;;;;;5107888;28;20035;-44
2021/03/23 08:58:14;;;;;;;13.98;9.90;;;25.40;80.40;;;;;;5107470;28;20031;-46
2021/03/23 09:00:58;;;;;;;16.75;10.85;;;25.40;80.70;;;;;;5107378;28;20023;-45
2021/03/23 09:03:46;;;;;;;18.80;10.40;;;25.30;81.20;;;;;;5107143;28;20026;-44
2021/03/23 09:06:18;;;;;;;11.93;10.25;;;25.30;81.60;;;;;;5107154;28;20074;-49
2021/03/23 09:09:34;;;;;;;15.05;10.45;;;25.30;81.20;;;;;;5107388;28;20020;-46
2021/03/23 09:12:52;;;;;;;17.25;10.48;;;25.30;81.20;;;;;;5081149;28;20028;-46
2021/03/23 09:15:23;;;;;;;14.35;10.02;;;25.20;80.80;;;;;;5084063;28;20039;-56
2021/03/23 09:18:11;;;;;;;16.23;10.77;;;25.30;81.00;;;;;;5107026;28;20259;-49
2021/03/23 09:20:38;;;;;;;17.15;10.43;;;25.20;81.40;;;;;;5106954;28;20327;-49
2021/03/23 09:23:20;;;;;;;17.63;10.90;;;25.20;81.10;;;;;;5106974;28;20204;-50
2021/03/23 09:25:58;;;;;;;13.40;10.73;;;25.20;81.70;;;;;;5106956;28;20038;-44
2021/03/23 09:28:38;;;;;;;16.50;10.88;;;25.20;81.60;;;;;;5106889;28;20150;-50
2021/03/23 09:31:18;;;;;;;16.52;10.85;;;25.20;81.40;;;;;;5107099;28;20020;-44
2021/03/23 09:33:55;;;;;;;17.73;11.85;;;25.20;81.10;;;;;;5107235;28;20074;-47
2021/03/23 09:36:45;;;;;;;13.85;10.77;;;25.20;81.10;;;;;;5106928;28;20020;-48
2021/03/23 09:39:17;;;;;;;17.00;11.20;;;25.10;81.40;;;;;;5106946;28;20028;-44
2021/03/23 09:42:21;;;;;;;15.70;11.10;;;25.20;81.60;;;;;;5106848;28;20273;-47
2021/03/23 09:44:59;;;;;;;16.42;10.68;;;25.10;81.80;;;;;;5106368;28;20048;-46
2021/03/23 09:47:43;;;;;;;19.52;10.60;;;25.10;81.70;;;;;;5106161;28;20016;-47
2021/03/23 09:50:29;;;;;;;14.82;10.90;;;25.10;82.00;;;;;;5106657;28;20016;-52
2021/03/23 09:53:09;;;;;;;17.27;11.07;;;25.10;82.30;;;;;;5121773;28;20091;-51
2021/03/23 09:55:38;;;;;;;19.95;11.15;;;25.00;82.30;;;;;;5105976;28;20376;-58
2021/03/23 09:58:05;;;;;;;20.50;11.55;;;25.00;82.40;;;;;;5105969;28;20036;-51
2021/03/23 10:00:34;;;;;;;16.83;11.70;;;25.00;82.30;;;;;;5105756;28;20016;-45
2021/03/23 10:03:01;;;;;;;18.15;11.98;;;25.00;82.30;;;;;;5105990;28;20087;-51
2021/03/23 10:05:31;;;;;;;19.40;12.30;;;25.00;82.70;;;;;;5105767;28;20027;-56
2021/03/23 10:08:18;;;;;;;19.27;11.65;;;24.90;82.90;;;;;;5105945;28;20323;-46
2021/03/23 10:10:45;;;;;;;19.02;12.02;;;24.90;82.40;;;;;;5105814;28;20024;-45
2021/03/23 10:13:27;;;;;;;16.33;12.90;;;24.90;82.20;;;;;;5105802;28;20019;-48
2021/03/23 10:15:56;;;;;;;16.10;11.15;;;24.90;82.10;;;;;;5105593;28;20083;-48
2021/03/23 10:18:28;;;;;;;17.25;11.43;;;24.90;81.80;;;;;;5105711;28;20058;-49
2021/03/23 10:21:09;;;;;;;15.65;11.32;;;24.90;81.90;;;;;;5105310;28;20282;-50
2021/03/23 10:23:50;;;;;;;15.98;12.18;;;24.90;82.00;;;;;;5105617;28;20024;-49
2021/03/23 10:26:18;;;;;;;16.95;11.88;;;24.80;82.50;;;;;;5105339;28;20024;-46
2021/03/23 10:28:51;;;;;;;16.15;11.88;;;24.80;82.40;;;;;;5105513;28;20020;-49
2021/03/23 10:31:39;;;;;;;16.60;11.90;;;24.80;82.50;;;;;;5105355;28;20122;-51
2021/03/23 10:34:28;;;;;;;15.95;11.60;;;24.90;82.10;;;;;;5105034;28;20133;-54
2021/03/23 10:37:09;;;;;;;18.10;12.38;;;24.90;82.50;;;;;;5104939;28;20397;-51
2021/03/23 10:39:42;;;;;;;19.55;12.57;;;24.90;82.40;;;;;;5105816;28;20032;-52
2021/03/23 10:42:28;;;;;;;;;;;24.90;82.80;;;;;;5104803;28;20264;-53
2021/03/23 10:45:29;;;;;;;21.20;11.65;;;24.90;83.10;;;;;;5105172;28;19908;-47
2021/03/23 10:48:26;;;;;;;18.63;12.02;;;24.80;82.70;;;;;;5105227;28;20026;-54
2021/03/23 10:51:25;;;;;;;17.73;12.18;;;24.90;83.10;;;;;;5102694;28;20081;-52
2021/03/23 10:54:07;;;;;;;20.20;11.95;;;24.90;83.40;;;;;;5105032;28;20024;-51
2021/03/23 10:56:55;;;;;;;21.85;12.73;;;24.90;83.10;;;;;;5104961;28;20020;-52
2021/03/23 10:59:33;;;;;;;18.58;12.27;;;24.90;83.40;;;;;;5104890;28;20027;-49
2021/03/23 11:02:23;;;;;;;23.90;12.95;;;24.90;83.50;;;;;;5104593;28;20031;-45
2021/03/23 11:05:08;;;;;;;21.98;13.48;;;24.90;83.60;;;;;;5104861;28;20361;-49
2021/03/23 11:07:39;;;;;;;22.88;12.60;;;24.90;83.40;;;;;;5104465;28;20075;-45
2021/03/23 11:10:10;;;;;;;17.05;12.70;;;24.90;83.70;;;;;;5104384;28;20019;-52
2021/03/23 11:12:38;;;;;;;23.13;14.45;;;24.90;83.70;;;;;;5104467;28;20217;-53
2021/03/23 11:15:05;;;;;;;25.50;17.70;;;24.90;83.40;;;;;;5104469;28;20368;-50
2021/03/23 11:17:43;;;;;;;22.05;16.75;;;24.90;83.70;;;;;;5104757;28;20297;-48
2021/03/23 11:20:28;;;;;;;33.15;14.52;;;25.00;82.90;;;;;;5104179;28;20240;-55
2021/03/23 11:22:56;;;;;;;22.45;13.13;;;25.10;82.90;;;;;;5104223;28;20036;-48
2021/03/23 11:25:26;;;;;;;19.80;13.23;;;25.10;82.50;;;;;;5104644;28;20016;-52
2021/03/23 11:27:54;;;;;;;23.15;13.27;;;25.10;82.60;;;;;;5099860;28;20020;-46
2021/03/23 11:30:22;;;;;;;25.48;13.55;;;25.10;82.10;;;;;;5100883;28;20016;-52
2021/03/23 11:32:49;;;;;;;81.30;17.98;;;25.20;82.10;;;;;;5100092;28;20032;-53
2021/03/23 11:35:18;;;;;;;78.30;16.38;;;25.20;81.70;;;;;;5100144;28;20020;-54
2021/03/23 11:37:45;;;;;;;43.25;13.80;;;25.20;81.50;;;;;;5100715;28;20312;-56
2021/03/23 11:40:12;;;;;;;26.08;13.50;;;25.30;81.80;;;;;;5099390;28;20323;-55
2021/03/23 11:42:45;;;;;;;118.05;27.70;;;25.30;82.30;;;;;;5102995;28;20062;-53
2021/03/23 11:45:35;;;;;;;311.25;53.78;;;25.30;82.60;;;;;;5104115;28;20069;-56
2021/03/23 11:48:08;;;;;;;241.63;45.20;;;25.30;82.10;;;;;;5103658;28;20048;-53
2021/03/23 11:50:35;;;;;;;84.20;25.30;;;25.40;81.90;;;;;;5103957;28;20043;-54
2021/03/23 11:53:02;;;;;;;98.38;24.52;;;25.50;81.60;;;;;;5102953;28;20035;-54
2021/03/23 11:55:37;;;;;;;92.32;24.50;;;25.70;81.30;;;;;;5103258;28;20247;-54
2021/03/23 11:58:05;;;;;;;87.20;23.02;;;25.90;80.80;;;;;;5103956;28;20031;-48
2021/03/23 12:00:33;;;;;;;62.95;19.95;;;26.00;80.10;;;;;;5104252;28;20049;-46
2021/03/23 12:03:00;;;;;;;44.50;16.92;;;26.20;79.50;;;;;;5103822;28;20032;-51
2021/03/23 12:05:28;;;;;;;39.90;16.52;;;26.30;78.90;;;;;;5103710;28;20020;-51
2021/03/23 12:08:29;;;;;;;37.53;16.13;;;26.40;78.80;;;;;;5104035;28;20020;-48
2021/03/23 12:11:17;;;;;;;25.88;14.23;;;26.50;78.40;;;;;;5103788;28;20016;-51
2021/03/23 12:14:23;;;;;;;26.27;13.63;;;26.60;77.90;;;;;;5104070;28;20091;-48
2021/03/23 12:17:14;;;;;;;30.08;14.80;;;26.60;78.10;;;;;;5103775;28;20016;-53
2021/03/23 12:19:51;;;;;;;27.13;13.60;;;26.70;77.80;;;;;;5103836;28;20052;-49
2021/03/23 12:22:18;;;;;;;32.05;13.35;;;26.80;77.60;;;;;;5103477;28;20087;-51
2021/03/23 12:24:46;;;;;;;19.67;13.30;;;27.00;77.30;;;;;;5104055;28;20024;-50
2021/03/23 12:27:14;;;;;;;27.90;12.73;;;27.10;77.20;;;;;;5102616;28;20212;-54
2021/03/23 12:29:42;;;;;;;28.52;14.15;;;27.20;77.60;;;;;;5104072;28;20031;-53
2021/03/23 12:32:11;;;;;;;20.17;12.63;;;27.30;76.70;;;;;;5103661;28;20020;-49
2021/03/23 12:34:38;;;;;;;27.17;13.13;;;27.40;76.40;;;;;;5104277;28;20099;-49
2021/03/23 12:37:05;;;;;;;23.20;12.55;;;27.40;76.20;;;;;;5103554;28;20020;-53
2021/03/23 12:39:32;;;;;;;19.83;12.93;;;27.50;75.90;;;;;;5104065;28;20024;-50
2021/03/23 12:41:58;;;;;;;25.10;12.63;;;27.60;75.80;;;;;;5103595;28;20312;-51
2021/03/23 12:44:25;;;;;;;26.10;13.15;;;27.60;75.60;;;;;;5103844;28;20065;-53
2021/03/23 12:46:52;;;;;;;24.52;13.00;;;27.70;75.60;;;;;;5103517;28;20304;-49
2021/03/23 12:49:18;;;;;;;23.05;12.40;;;27.70;75.30;;;;;;5103851;28;20032;-52
2021/03/23 12:51:50;;;;;;;18.50;13.00;;;27.70;75.30;;;;;;5103373;28;20020;-48
2021/03/23 12:54:35;;;;;;;18.83;12.60;;;27.70;75.00;;;;;;5103737;28;20050;-48
2021/03/23 12:57:03;;;;;;;19.98;12.65;;;27.80;74.90;;;;;;5103394;28;20020;-52
2021/03/23 12:59:30;;;;;;;22.38;13.50;;;27.80;74.90;;;;;;5103685;28;20316;-48
2021/03/23 13:01:58;;;;;;;18.00;12.25;;;27.80;74.70;;;;;;5103356;28;20043;-54
2021/03/23 13:04:27;;;;;;;19.80;12.57;;;27.80;74.40;;;;;;5105318;28;20024;-54
2021/03/23 13:06:58;;;;;;;16.20;12.82;;;27.80;74.50;;;;;;5106938;28;20090;-51
2021/03/23 13:09:32;;;;;;;21.80;13.23;;;27.80;74.70;;;;;;5107538;28;20047;-54
2021/03/23 13:12:01;;;;;;;16.38;11.95;;;27.70;75.10;;;;;;5106731;28;20046;-53
2021/03/23 13:14:29;;;;;;;16.17;12.52;;;27.60;75.50;;;;;;5107364;28;20044;-52
2021/03/23 13:16:57;;;;;;;22.08;13.23;;;27.50;75.70;;;;;;5106854;28;20208;-54
2021/03/23 13:19:24;;;;;;;21.95;11.65;;;27.50;75.90;;;;;;5106851;28;20091;-51
2021/03/23 13:22:03;;;;;;;24.70;12.43;;;27.40;76.30;;;;;;5106529;28;20020;-50
2021/03/23 13:24:42;;;;;;;19.77;13.00;;;27.40;76.40;;;;;;5107149;28;20020;-52
2021/03/23 13:27:31;;;;;;;21.38;12.13;;;27.30;76.60;;;;;;5106704;28;20113;-52